createdAt,value
2019-05-02T00:02:33.139Z,16.23
2019-05-02T00:07:35.602Z,14.27
2019-05-02T00:12:38.079Z,19.00
2019-05-02T00:17:40.544Z,16.60
2019-05-02T00:22:42.994Z,18.97
2019-05-02T00:27:45.450Z,15.23
2019-05-02T00:32:47.904Z,16.60
2019-05-02T00:37:50.364Z,14.77
2019-05-02T00:42:53.190Z,14.70
2019-05-02T00:47:58.212Z,17.20
2019-05-02T00:53:00.680Z,23.90
2019-05-02T00:58:03.215Z,19.40
2019-05-02T01:03:05.689Z,22.00
2019-05-02T01:08:08.152Z,23.60
2019-05-02T01:13:14.620Z,17.00
2019-05-02T01:18:13.092Z,14.77
2019-05-02T01:23:15.566Z,18.70
2019-05-02T01:28:18.866Z,15.47
2019-05-02T01:33:23.046Z,16.90
2019-05-02T01:38:26.566Z,18.30
2019-05-02T01:43:30.750Z,16.53
2019-05-02T01:48:33.233Z,17.87
2019-05-02T01:53:35.903Z,19.27
2019-05-02T01:58:38.155Z,15.00
2019-05-02T02:03:45.697Z,17.47
2019-05-02T02:08:43.056Z,16.97
2019-05-02T02:13:45.524Z,18.13
2019-05-02T02:18:50.924Z,19.17
2019-05-02T02:23:53.399Z,16.77
2019-05-02T02:28:55.837Z,18.57
2019-05-02T02:33:58.295Z,16.93
2019-05-02T02:39:07.027Z,20.27
2019-05-02T02:44:12.487Z,16.97
2019-05-02T02:49:21.502Z,17.33
2019-05-02T02:54:17.393Z,14.37
2019-05-02T02:59:26.426Z,19.27
2019-05-02T03:04:22.306Z,17.33
2019-05-02T03:09:26.598Z,17.70
2019-05-02T03:14:27.216Z,18.60
2019-05-02T03:19:29.675Z,16.93
2019-05-02T03:24:36.558Z,16.70
2019-05-02T03:29:41.031Z,19.73
2019-05-02T03:34:47.228Z,18.97
2019-05-02T03:39:39.502Z,23.93
2019-05-02T03:44:42.030Z,20.43
2019-05-02T03:49:48.713Z,18.03
2019-05-02T03:54:52.090Z,21.10
2019-05-02T03:59:49.405Z,20.57
2019-05-02T04:04:54.263Z,19.13
2019-05-02T04:09:54.351Z,19.17
2019-05-02T04:14:57.444Z,20.10
2019-05-02T04:19:59.408Z,21.33
2019-05-02T04:25:01.758Z,22.30
2019-05-02T04:30:11.269Z,23.97
2019-05-02T04:35:06.699Z,21.43
2019-05-02T04:40:12.358Z,17.20
2019-05-02T04:45:25.227Z,22.07
2019-05-02T04:50:18.326Z,21.17
2019-05-02T04:55:26.130Z,19.53
2019-05-02T05:00:19.127Z,17.57
2019-05-02T05:05:25.530Z,19.23
2019-05-02T05:10:24.097Z,18.93
2019-05-02T05:15:37.299Z,16.00
2019-05-02T05:20:29.029Z,20.83
2019-05-02T05:25:34.463Z,17.57
2019-05-02T05:30:44.710Z,21.90
2019-05-02T05:35:43.201Z,22.80
2019-05-02T05:40:41.920Z,23.27
2019-05-02T05:45:53.458Z,19.67
2019-05-02T05:50:47.771Z,24.93
2019-05-02T05:55:53.554Z,23.07
2019-05-02T06:00:55.438Z,28.03
2019-05-02T06:05:54.264Z,27.00
2019-05-02T06:10:56.713Z,32.77
2019-05-02T06:16:02.764Z,38.57
2019-05-02T06:21:03.334Z,36.23
2019-05-02T06:26:07.875Z,33.73
2019-05-02T06:31:07.170Z,37.73
2019-05-02T06:36:09.132Z,31.53
2019-05-02T06:41:11.605Z,34.87
2019-05-02T06:46:16.259Z,36.87
2019-05-02T06:51:19.575Z,39.23
2019-05-02T06:56:19.010Z,38.23
2019-05-02T07:01:22.858Z,36.60
2019-05-02T07:06:24.103Z,41.17
2019-05-02T07:11:26.415Z,40.70
2019-05-02T07:16:41.015Z,40.80
2019-05-02T07:21:43.503Z,41.67
2019-05-02T07:26:45.976Z,37.63
2019-05-02T07:31:48.927Z,46.57
2019-05-02T07:36:50.915Z,42.10
2019-05-02T07:41:53.377Z,41.33
2019-05-02T07:46:57.008Z,42.27
2019-05-02T07:51:58.976Z,44.13
2019-05-02T07:57:02.420Z,46.43
2019-05-02T08:02:03.247Z,49.73
2019-05-02T08:07:05.723Z,46.83
2019-05-02T08:12:08.182Z,47.40
2019-05-02T08:17:16.885Z,56.07
2019-05-02T08:22:14.842Z,54.10
2019-05-02T08:27:23.212Z,57.60
2019-05-02T08:32:24.336Z,51.23
2019-05-02T08:37:26.804Z,50.57
2019-05-02T08:42:32.534Z,49.15
2019-05-02T08:47:31.753Z,46.35
2019-05-02T08:52:36.807Z,45.58
2019-05-02T08:57:36.737Z,44.78
2019-05-02T09:02:41.414Z,41.03
2019-05-02T09:07:43.111Z,40.15
2019-05-02T09:12:45.587Z,39.30
2019-05-02T09:17:52.808Z,42.08
2019-05-02T09:22:52.200Z,39.65
2019-05-02T09:27:52.680Z,40.15
2019-05-02T09:32:57.058Z,42.88
2019-05-02T09:37:56.781Z,38.72
2019-05-02T09:43:02.081Z,40.70
2019-05-02T09:48:07.178Z,39.10
2019-05-02T09:53:04.210Z,44.05
2019-05-02T09:58:10.365Z,51.20
2019-05-02T10:03:09.159Z,47.10
2019-05-02T10:08:13.919Z,40.83
2019-05-02T10:13:14.126Z,39.80
2019-05-02T10:18:19.771Z,39.67
2019-05-02T10:23:19.796Z,35.28
2019-05-02T10:28:22.865Z,33.63
2019-05-02T10:33:27.867Z,34.35
2019-05-02T10:38:26.409Z,41.75
2019-05-02T10:43:28.872Z,40.92
2019-05-02T10:48:33.192Z,43.95
2019-05-02T10:53:33.834Z,38.35
2019-05-02T10:58:36.297Z,38.25
2019-05-02T11:03:45.008Z,32.05
2019-05-02T11:08:45.948Z,30.35
2019-05-02T11:13:46.358Z,28.75
2019-05-02T11:18:55.124Z,28.42
2019-05-02T11:23:57.720Z,25.10
2019-05-02T11:29:00.261Z,27.95
2019-05-02T11:34:02.727Z,26.10
2019-05-02T11:39:17.074Z,22.75
2019-05-02T11:44:07.657Z,23.52
2019-05-02T11:49:12.099Z,22.27
2019-05-02T11:54:13.096Z,22.33
2019-05-02T11:59:15.142Z,24.30
2019-05-02T12:04:17.576Z,23.95
2019-05-02T12:09:24.017Z,23.83
2019-05-02T12:14:27.406Z,22.92
2019-05-02T12:19:28.934Z,23.65
2019-05-02T12:24:31.976Z,23.87
2019-05-02T12:29:33.848Z,23.93
2019-05-02T12:34:36.310Z,25.07
2019-05-02T12:39:38.765Z,24.20
2019-05-02T12:44:42.615Z,24.77
2019-05-02T12:49:43.701Z,25.13
2019-05-02T12:54:46.217Z,25.03
2019-05-02T12:59:48.672Z,21.90
2019-05-02T13:04:52.756Z,24.60
2019-05-02T13:09:53.630Z,27.93
2019-05-02T13:14:56.080Z,23.30
2019-05-02T13:20:01.507Z,19.33
2019-05-02T13:25:02.295Z,17.13
2019-05-02T13:30:03.575Z,16.30
2019-05-02T13:35:12.883Z,19.60
2019-05-02T13:40:22.452Z,12.97
2019-05-02T13:45:38.130Z,10.67
2019-05-02T13:50:42.362Z,12.73
2019-05-02T13:55:43.086Z,12.87
2019-05-02T14:00:45.547Z,16.57
2019-05-02T14:05:50.754Z,15.70
2019-05-02T14:10:59.462Z,9.40
2019-05-02T14:16:02.347Z,14.17
2019-05-02T14:21:04.390Z,20.47
2019-05-02T14:26:06.819Z,17.57
2019-05-02T14:31:09.279Z,10.33
2019-05-02T14:36:11.749Z,15.77
2019-05-02T14:41:14.191Z,12.33
2019-05-02T14:46:19.521Z,14.40
2019-05-02T14:51:27.404Z,12.40
2019-05-02T14:56:37.649Z,14.03
2019-05-02T15:01:35.755Z,16.63
2019-05-02T15:06:42.373Z,15.70
2019-05-02T15:11:59.340Z,15.60
2019-05-02T15:17:02.541Z,18.93
2019-05-02T15:22:04.300Z,16.37
2019-05-02T15:27:11.664Z,17.40
2019-05-02T15:32:09.256Z,24.47
2019-05-02T15:37:12.481Z,22.93
2019-05-02T15:42:17.886Z,19.43
2019-05-02T15:47:16.730Z,16.83
2019-05-02T15:52:24.231Z,18.17
2019-05-02T15:57:25.040Z,22.70
2019-05-02T16:02:27.091Z,18.43
2019-05-02T16:07:29.572Z,26.33
2019-05-02T16:12:35.948Z,17.27
2019-05-02T16:17:34.500Z,15.63
2019-05-02T16:22:38.305Z,17.17
2019-05-02T16:27:45.556Z,23.77
2019-05-02T16:32:52.265Z,17.10
2019-05-02T16:37:55.978Z,24.17
2019-05-02T16:42:55.844Z,27.03
2019-05-02T16:48:00.192Z,23.60
2019-05-02T16:53:02.266Z,21.27
2019-05-02T16:58:07.038Z,25.63
2019-05-02T17:03:05.765Z,25.13
2019-05-02T17:08:10.545Z,31.10
2019-05-02T17:13:12.492Z,24.93
2019-05-02T17:18:17.834Z,33.50
2019-05-02T17:23:15.730Z,24.33
2019-05-02T17:28:18.205Z,25.40
2019-05-02T17:33:21.757Z,25.43
2019-05-02T17:38:24.948Z,23.20
2019-05-02T17:43:25.618Z,25.87
2019-05-02T17:48:29.406Z,21.67
2019-05-02T17:53:33.874Z,23.93
2019-05-02T17:58:33.077Z,21.83
2019-05-02T18:03:35.623Z,24.00
2019-05-02T18:08:38.067Z,31.77
2019-05-02T18:13:42.336Z,22.13
2019-05-02T18:18:46.630Z,33.43
2019-05-02T18:23:45.529Z,27.50
2019-05-02T18:28:49.389Z,35.63
2019-05-02T18:33:52.074Z,29.23
2019-05-02T18:39:00.216Z,32.67
2019-05-02T18:43:55.479Z,33.53
2019-05-02T18:48:59.224Z,37.40
2019-05-02T18:54:04.202Z,46.03
2019-05-02T18:59:03.025Z,48.07
2019-05-02T19:04:05.522Z,48.33
2019-05-02T19:09:08.029Z,50.63
2019-05-02T19:14:11.746Z,50.03
2019-05-02T19:19:13.008Z,53.47
2019-05-02T19:24:15.484Z,53.13
2019-05-02T19:29:26.917Z,50.50
2019-05-02T19:34:29.406Z,55.80
2019-05-02T19:39:32.270Z,47.07
2019-05-02T19:44:34.363Z,46.50
2019-05-02T19:49:36.846Z,44.80
2019-05-02T19:54:41.147Z,53.27
2019-05-02T19:59:43.142Z,44.20
2019-05-02T20:04:44.436Z,44.40
2019-05-02T20:09:47.419Z,46.97
2019-05-02T20:14:49.284Z,45.97
2019-05-02T20:19:52.905Z,60.53
2019-05-02T20:24:58.304Z,62.57
2019-05-02T20:29:56.782Z,66.93
2019-05-02T20:34:59.260Z,60.87
2019-05-02T20:40:02.806Z,68.10
2019-05-02T20:45:04.234Z,65.47
2019-05-02T20:50:06.725Z,69.47
2019-05-02T20:55:09.182Z,86.23
2019-05-02T21:00:23.275Z,69.87
2019-05-02T21:05:22.825Z,68.37
2019-05-02T21:10:32.284Z,77.83
2019-05-02T21:15:33.722Z,75.47
2019-05-02T21:20:36.192Z,68.90
2019-05-02T21:25:38.649Z,65.33
2019-05-02T21:30:41.629Z,81.30
2019-05-02T21:35:43.600Z,72.00
2019-05-02T21:40:46.164Z,96.00
2019-05-02T21:45:48.624Z,90.70
2019-05-02T21:50:51.123Z,91.63
2019-05-02T21:55:56.517Z,85.47
2019-05-02T22:00:58.980Z,91.37
2019-05-02T22:06:01.437Z,86.77
2019-05-02T22:11:03.911Z,96.90
2019-05-02T22:16:06.382Z,104.80
2019-05-02T22:21:08.871Z,96.63
2019-05-02T22:26:12.738Z,94.40
2019-05-02T22:31:13.896Z,92.93
2019-05-02T22:36:16.395Z,103.60
2019-05-02T22:41:18.850Z,90.13
2019-05-02T22:46:39.741Z,88.60
2019-05-02T22:51:42.724Z,124.50
2019-05-02T22:56:44.654Z,107.07
2019-05-02T23:01:47.108Z,105.67
2019-05-02T23:06:49.579Z,104.17
2019-05-02T23:11:52.058Z,111.47
2019-05-02T23:16:54.503Z,139.50
2019-05-02T23:21:57.245Z,111.23
2019-05-02T23:27:17.692Z,114.37
2019-05-02T23:32:23.631Z,103.93
2019-05-02T23:37:22.582Z,115.20
2019-05-02T23:42:25.028Z,100.03
2019-05-02T23:47:27.482Z,119.17
2019-05-02T23:52:31.571Z,105.43
2019-05-02T23:57:32.563Z,109.40
